Terminal Aerodrome Forecast
Issued by NWS

Home | Current Version | Previous Version | Graphics & Text | Print | Product List | Glossary On
Versions: 1 2 3 4 5 6 7 8 9 10 11 12
000
FTUS43 KIWX 161720
TAFSBN
TAF
KSBN 161720Z 1618/1718 16007KT P6SM SCT050 BKN150
     FM170200 14008KT P6SM VCTS BKN050CB
     FM170800 15008KT 5SM -SHRA VCTS OVC035CB
     FM171300 19010KT P6SM VCSH OVC035=

USA.gov is the U.S. government's official web portal to all federal, state and local government web resources and services.